sensor_id;sensor_type;location;lat;lon;timestamp;temperature;humidity
30206;DHT22;17010;51.306;3.150;2023-07-08T00:01:13;22.30;99.90
30206;DHT22;17010;51.306;3.150;2023-07-08T00:03:40;22.30;99.90
30206;DHT22;17010;51.306;3.150;2023-07-08T00:06:22;22.30;99.90
30206;DHT22;17010;51.306;3.150;2023-07-08T00:08:49;22.20;99.90
30206;DHT22;17010;51.306;3.150;2023-07-08T00:11:15;22.20;99.90
30206;DHT22;17010;51.306;3.150;2023-07-08T00:13:42;22.10;99.90
30206;DHT22;17010;51.306;3.150;2023-07-08T00:16:15;22.00;99.90
30206;DHT22;17010;51.306;3.150;2023-07-08T00:18:42;21.90;99.90
30206;DHT22;17010;51.306;3.150;2023-07-08T00:21:10;21.80;99.90
30206;DHT22;17010;51.306;3.150;2023-07-08T00:23:49;21.70;99.90
30206;DHT22;17010;51.306;3.150;2023-07-08T00:26:27;21.60;99.90
30206;DHT22;17010;51.306;3.150;2023-07-08T00:28:54;21.60;99.90
30206;DHT22;17010;51.306;3.150;2023-07-08T00:31:21;21.50;99.90
30206;DHT22;17010;51.306;3.150;2023-07-08T00:33:50;21.40;99.90
30206;DHT22;17010;51.306;3.150;2023-07-08T00:36:17;21.30;99.90
30206;DHT22;17010;51.306;3.150;2023-07-08T00:38:43;21.30;99.90
30206;DHT22;17010;51.306;3.150;2023-07-08T00:43:58;21.30;99.90
30206;DHT22;17010;51.306;3.150;2023-07-08T00:49:07;21.20;99.90
30206;DHT22;17010;51.306;3.150;2023-07-08T00:51:38;21.20;99.90
30206;DHT22;17010;51.306;3.150;2023-07-08T00:54:15;21.10;99.90
30206;DHT22;17010;51.306;3.150;2023-07-08T00:56:59;21.10;99.90
30206;DHT22;17010;51.306;3.150;2023-07-08T00:59:35;21.10;99.90
30206;DHT22;17010;51.306;3.150;2023-07-08T01:02:04;21.10;99.90
30206;DHT22;17010;51.306;3.150;2023-07-08T01:04:34;21.00;99.90
30206;DHT22;17010;51.306;3.150;2023-07-08T01:07:00;21.00;99.90
30206;DHT22;17010;51.306;3.150;2023-07-08T01:09:37;21.00;99.90
30206;DHT22;17010;51.306;3.150;2023-07-08T01:12:06;21.00;99.90
30206;DHT22;17010;51.306;3.150;2023-07-08T01:14:34;20.90;99.90
30206;DHT22;17010;51.306;3.150;2023-07-08T01:17:02;20.90;99.90
30206;DHT22;17010;51.306;3.150;2023-07-08T01:19:28;20.80;99.90
30206;DHT22;17010;51.306;3.150;2023-07-08T01:22:04;20.80;99.90
30206;DHT22;17010;51.306;3.150;2023-07-08T01:24:33;20.70;99.90
30206;DHT22;17010;51.306;3.150;2023-07-08T01:27:01;20.70;99.90
30206;DHT22;17010;51.306;3.150;2023-07-08T01:29:29;20.70;99.90
30206;DHT22;17010;51.306;3.150;2023-07-08T01:31:57;20.60;99.90
30206;DHT22;17010;51.306;3.150;2023-07-08T01:34:23;20.50;99.90
30206;DHT22;17010;51.306;3.150;2023-07-08T01:36:54;20.40;99.90
30206;DHT22;17010;51.306;3.150;2023-07-08T01:39:23;20.40;99.90
30206;DHT22;17010;51.306;3.150;2023-07-08T01:41:49;20.30;99.90
30206;DHT22;17010;51.306;3.150;2023-07-08T01:44:43;20.20;99.90
30206;DHT22;17010;51.306;3.150;2023-07-08T01:47:18;20.20;99.90
30206;DHT22;17010;51.306;3.150;2023-07-08T01:49:46;20.20;99.90
30206;DHT22;17010;51.306;3.150;2023-07-08T01:52:13;20.20;99.90
30206;DHT22;17010;51.306;3.150;2023-07-08T01:54:41;20.10;99.90
30206;DHT22;17010;51.306;3.150;2023-07-08T01:57:07;20.10;99.90
30206;DHT22;17010;51.306;3.150;2023-07-08T01:59:33;20.10;99.90
30206;DHT22;17010;51.306;3.150;2023-07-08T02:02:00;20.10;99.90
30206;DHT22;17010;51.306;3.150;2023-07-08T02:04:26;20.10;99.90
30206;DHT22;17010;51.306;3.150;2023-07-08T02:06:56;20.00;99.90
30206;DHT22;17010;51.306;3.150;2023-07-08T02:09:23;20.00;99.90
30206;DHT22;17010;51.306;3.150;2023-07-08T02:11:51;20.00;99.90
30206;DHT22;17010;51.306;3.150;2023-07-08T02:14:18;20.10;99.90
30206;DHT22;17010;51.306;3.150;2023-07-08T02:16:44;20.10;99.90
30206;DHT22;17010;51.306;3.150;2023-07-08T02:19:11;20.00;99.90
30206;DHT22;17010;51.306;3.150;2023-07-08T02:21:38;20.00;99.90
30206;DHT22;17010;51.306;3.150;2023-07-08T02:24:05;20.10;99.90
30206;DHT22;17010;51.306;3.150;2023-07-08T02:26:31;20.00;99.90
30206;DHT22;17010;51.306;3.150;2023-07-08T02:28:58;20.00;99.90
30206;DHT22;17010;51.306;3.150;2023-07-08T02:31:25;20.00;99.90
30206;DHT22;17010;51.306;3.150;2023-07-08T02:33:52;20.00;99.90
30206;DHT22;17010;51.306;3.150;2023-07-08T02:36:19;20.00;99.90
30206;DHT22;17010;51.306;3.150;2023-07-08T02:38:45;20.00;99.90
30206;DHT22;17010;51.306;3.150;2023-07-08T02:41:11;19.90;99.90
30206;DHT22;17010;51.306;3.150;2023-07-08T02:43:38;19.90;99.90
30206;DHT22;17010;51.306;3.150;2023-07-08T02:46:05;19.90;99.90
30206;DHT22;17010;51.306;3.150;2023-07-08T02:48:31;19.90;99.90
30206;DHT22;17010;51.306;3.150;2023-07-08T02:51:01;19.80;99.90
30206;DHT22;17010;51.306;3.150;2023-07-08T02:53:28;19.80;99.90
30206;DHT22;17010;51.306;3.150;2023-07-08T02:55:55;19.80;99.90
30206;DHT22;17010;51.306;3.150;2023-07-08T02:58:21;19.70;99.90
30206;DHT22;17010;51.306;3.150;2023-07-08T03:00:55;19.70;99.90
30206;DHT22;17010;51.306;3.150;2023-07-08T03:03:22;19.60;99.90
30206;DHT22;17010;51.306;3.150;2023-07-08T03:05:56;19.60;99.90
30206;DHT22;17010;51.306;3.150;2023-07-08T03:08:23;19.70;99.90
30206;DHT22;17010;51.306;3.150;2023-07-08T03:10:55;19.70;99.90
30206;DHT22;17010;51.306;3.150;2023-07-08T03:13:22;19.70;99.90
30206;DHT22;17010;51.306;3.150;2023-07-08T03:15:49;19.60;99.90
30206;DHT22;17010;51.306;3.150;2023-07-08T03:18:15;19.70;99.90
30206;DHT22;17010;51.306;3.150;2023-07-08T03:20:42;19.70;99.90
30206;DHT22;17010;51.306;3.150;2023-07-08T03:23:11;19.70;99.90
30206;DHT22;17010;51.306;3.150;2023-07-08T03:25:38;19.60;99.90
30206;DHT22;17010;51.306;3.150;2023-07-08T03:28:04;19.60;99.90
30206;DHT22;17010;51.306;3.150;2023-07-08T03:30:33;19.60;99.90
30206;DHT22;17010;51.306;3.150;2023-07-08T03:33:00;19.50;99.90
30206;DHT22;17010;51.306;3.150;2023-07-08T03:35:26;19.50;99.90
30206;DHT22;17010;51.306;3.150;2023-07-08T03:37:52;19.30;99.90
30206;DHT22;17010;51.306;3.150;2023-07-08T03:40:19;19.30;99.90
30206;DHT22;17010;51.306;3.150;2023-07-08T03:42:45;19.20;99.90
30206;DHT22;17010;51.306;3.150;2023-07-08T03:45:11;19.10;99.90
30206;DHT22;17010;51.306;3.150;2023-07-08T03:47:37;19.10;99.90
30206;DHT22;17010;51.306;3.150;2023-07-08T03:50:03;19.10;99.90
30206;DHT22;17010;51.306;3.150;2023-07-08T03:52:30;19.10;99.90
30206;DHT22;17010;51.306;3.150;2023-07-08T03:54:56;19.00;99.90
30206;DHT22;17010;51.306;3.150;2023-07-08T03:57:23;19.10;99.90
30206;DHT22;17010;51.306;3.150;2023-07-08T03:59:49;19.10;99.90
30206;DHT22;17010;51.306;3.150;2023-07-08T04:02:16;19.20;99.90
30206;DHT22;17010;51.306;3.150;2023-07-08T04:04:42;19.20;99.90
30206;DHT22;17010;51.306;3.150;2023-07-08T04:07:09;19.20;99.90
30206;DHT22;17010;51.306;3.150;2023-07-08T04:09:35;19.20;99.90
30206;DHT22;17010;51.306;3.150;2023-07-08T04:12:03;19.20;99.90
30206;DHT22;17010;51.306;3.150;2023-07-08T04:14:30;19.20;99.90
30206;DHT22;17010;51.306;3.150;2023-07-08T04:16:58;19.20;99.90
30206;DHT22;17010;51.306;3.150;2023-07-08T04:19:25;19.20;99.90
30206;DHT22;17010;51.306;3.150;2023-07-08T04:21:53;19.20;99.90
30206;DHT22;17010;51.306;3.150;2023-07-08T04:24:19;19.30;99.90
30206;DHT22;17010;51.306;3.150;2023-07-08T04:26:47;19.30;99.90
30206;DHT22;17010;51.306;3.150;2023-07-08T04:29:18;19.30;99.90
30206;DHT22;17010;51.306;3.150;2023-07-08T04:31:44;19.40;99.90
30206;DHT22;17010;51.306;3.150;2023-07-08T04:34:11;19.40;99.90
30206;DHT22;17010;51.306;3.150;2023-07-08T04:36:37;19.50;99.90
30206;DHT22;17010;51.306;3.150;2023-07-08T04:39:05;19.50;99.90
30206;DHT22;17010;51.306;3.150;2023-07-08T04:41:31;19.70;99.90
30206;DHT22;17010;51.306;3.150;2023-07-08T04:43:57;19.70;99.90
30206;DHT22;17010;51.306;3.150;2023-07-08T04:46:39;19.90;99.90
30206;DHT22;17010;51.306;3.150;2023-07-08T04:49:07;20.00;99.90
30206;DHT22;17010;51.306;3.150;2023-07-08T04:51:36;20.10;99.90
30206;DHT22;17010;51.306;3.150;2023-07-08T04:54:02;20.10;99.90
30206;DHT22;17010;51.306;3.150;2023-07-08T04:56:41;20.10;99.90
30206;DHT22;17010;51.306;3.150;2023-07-08T04:59:09;20.10;99.90
30206;DHT22;17010;51.306;3.150;2023-07-08T05:01:36;20.10;99.90
30206;DHT22;17010;51.306;3.150;2023-07-08T05:04:03;20.00;99.90
30206;DHT22;17010;51.306;3.150;2023-07-08T05:06:32;20.00;99.90
30206;DHT22;17010;51.306;3.150;2023-07-08T05:08:59;20.10;99.90
30206;DHT22;17010;51.306;3.150;2023-07-08T05:11:25;20.20;99.90
30206;DHT22;17010;51.306;3.150;2023-07-08T05:13:52;20.30;99.90
30206;DHT22;17010;51.306;3.150;2023-07-08T05:16:18;20.40;99.90
30206;DHT22;17010;51.306;3.150;2023-07-08T05:18:45;20.50;99.90
30206;DHT22;17010;51.306;3.150;2023-07-08T05:21:11;20.60;99.90
30206;DHT22;17010;51.306;3.150;2023-07-08T05:23:38;20.70;99.90
30206;DHT22;17010;51.306;3.150;2023-07-08T05:26:05;20.80;99.90
30206;DHT22;17010;51.306;3.150;2023-07-08T05:28:31;21.00;99.90
30206;DHT22;17010;51.306;3.150;2023-07-08T05:30:58;21.10;99.90
30206;DHT22;17010;51.306;3.150;2023-07-08T05:33:25;21.20;99.90
30206;DHT22;17010;51.306;3.150;2023-07-08T05:35:52;21.50;99.90
30206;DHT22;17010;51.306;3.150;2023-07-08T05:38:18;21.80;99.90
30206;DHT22;17010;51.306;3.150;2023-07-08T05:40:53;22.10;99.90
30206;DHT22;17010;51.306;3.150;2023-07-08T05:43:19;22.50;99.90
30206;DHT22;17010;51.306;3.150;2023-07-08T05:45:46;23.00;99.90
30206;DHT22;17010;51.306;3.150;2023-07-08T05:48:13;23.50;99.90
30206;DHT22;17010;51.306;3.150;2023-07-08T05:50:39;24.10;99.90
30206;DHT22;17010;51.306;3.150;2023-07-08T05:53:08;24.70;99.90
30206;DHT22;17010;51.306;3.150;2023-07-08T05:55:35;25.20;99.90
30206;DHT22;17010;51.306;3.150;2023-07-08T05:58:01;25.70;99.90
30206;DHT22;17010;51.306;3.150;2023-07-08T06:00:27;26.10;99.90
30206;DHT22;17010;51.306;3.150;2023-07-08T06:02:53;26.40;99.90
30206;DHT22;17010;51.306;3.150;2023-07-08T06:05:19;26.80;99.90
30206;DHT22;17010;51.306;3.150;2023-07-08T06:07:46;27.10;99.90
30206;DHT22;17010;51.306;3.150;2023-07-08T06:10:12;27.40;99.90
30206;DHT22;17010;51.306;3.150;2023-07-08T06:12:38;27.60;99.90
30206;DHT22;17010;51.306;3.150;2023-07-08T06:15:05;27.90;99.90
30206;DHT22;17010;51.306;3.150;2023-07-08T06:17:31;28.00;99.90
30206;DHT22;17010;51.306;3.150;2023-07-08T06:19:57;28.00;99.90
30206;DHT22;17010;51.306;3.150;2023-07-08T06:22:23;28.10;99.90
30206;DHT22;17010;51.306;3.150;2023-07-08T06:24:50;28.10;99.90
30206;DHT22;17010;51.306;3.150;2023-07-08T06:27:16;28.30;99.90
30206;DHT22;17010;51.306;3.150;2023-07-08T06:29:42;28.60;99.90
30206;DHT22;17010;51.306;3.150;2023-07-08T06:32:09;28.90;99.90
30206;DHT22;17010;51.306;3.150;2023-07-08T06:34:35;29.20;99.90
30206;DHT22;17010;51.306;3.150;2023-07-08T06:37:01;29.40;99.90
30206;DHT22;17010;51.306;3.150;2023-07-08T06:39:27;29.70;99.90
30206;DHT22;17010;51.306;3.150;2023-07-08T06:41:53;29.90;99.90
30206;DHT22;17010;51.306;3.150;2023-07-08T06:44:19;30.00;99.90
30206;DHT22;17010;51.306;3.150;2023-07-08T06:46:45;30.00;99.90
30206;DHT22;17010;51.306;3.150;2023-07-08T06:49:12;30.10;99.90
30206;DHT22;17010;51.306;3.150;2023-07-08T06:51:38;30.00;99.90
30206;DHT22;17010;51.306;3.150;2023-07-08T06:54:05;30.20;99.90
30206;DHT22;17010;51.306;3.150;2023-07-08T06:56:41;30.40;99.90
30206;DHT22;17010;51.306;3.150;2023-07-08T06:59:08;30.40;99.90
30206;DHT22;17010;51.306;3.150;2023-07-08T07:01:34;30.50;99.90
30206;DHT22;17010;51.306;3.150;2023-07-08T07:04:03;30.70;99.90
30206;DHT22;17010;51.306;3.150;2023-07-08T07:06:29;30.90;99.90
30206;DHT22;17010;51.306;3.150;2023-07-08T07:08:55;31.00;99.90
30206;DHT22;17010;51.306;3.150;2023-07-08T07:11:22;31.10;99.90
30206;DHT22;17010;51.306;3.150;2023-07-08T07:13:48;31.20;99.90
30206;DHT22;17010;51.306;3.150;2023-07-08T07:16:14;31.60;99.90
30206;DHT22;17010;51.306;3.150;2023-07-08T07:18:40;31.30;99.90
30206;DHT22;17010;51.306;3.150;2023-07-08T07:21:06;31.40;99.90
30206;DHT22;17010;51.306;3.150;2023-07-08T07:23:32;31.60;99.90
30206;DHT22;17010;51.306;3.150;2023-07-08T07:25:59;31.90;99.90
30206;DHT22;17010;51.306;3.150;2023-07-08T07:28:25;32.20;99.90
30206;DHT22;17010;51.306;3.150;2023-07-08T07:30:59;32.60;99.90
30206;DHT22;17010;51.306;3.150;2023-07-08T07:33:25;32.60;99.90
30206;DHT22;17010;51.306;3.150;2023-07-08T07:35:52;32.50;99.90
30206;DHT22;17010;51.306;3.150;2023-07-08T07:38:18;32.70;99.90
30206;DHT22;17010;51.306;3.150;2023-07-08T07:40:45;33.10;99.90
30206;DHT22;17010;51.306;3.150;2023-07-08T07:43:12;33.40;99.90
30206;DHT22;17010;51.306;3.150;2023-07-08T07:45:38;33.70;99.90
30206;DHT22;17010;51.306;3.150;2023-07-08T07:48:04;34.00;99.90
30206;DHT22;17010;51.306;3.150;2023-07-08T07:50:30;34.40;99.90
30206;DHT22;17010;51.306;3.150;2023-07-08T07:52:57;34.60;99.90
30206;DHT22;17010;51.306;3.150;2023-07-08T07:55:23;34.70;99.90
30206;DHT22;17010;51.306;3.150;2023-07-08T07:57:49;35.00;99.90
30206;DHT22;17010;51.306;3.150;2023-07-08T08:00:15;35.30;99.90
30206;DHT22;17010;51.306;3.150;2023-07-08T08:02:41;35.40;99.90
30206;DHT22;17010;51.306;3.150;2023-07-08T08:05:08;35.60;99.90
30206;DHT22;17010;51.306;3.150;2023-07-08T08:07:34;35.60;99.40
30206;DHT22;17010;51.306;3.150;2023-07-08T08:10:02;35.60;99.30
30206;DHT22;17010;51.306;3.150;2023-07-08T08:12:29;35.60;99.70
30206;DHT22;17010;51.306;3.150;2023-07-08T08:14:55;35.20;99.60
30206;DHT22;17010;51.306;3.150;2023-07-08T08:17:21;35.50;99.70
30206;DHT22;17010;51.306;3.150;2023-07-08T08:19:47;35.90;99.30
30206;DHT22;17010;51.306;3.150;2023-07-08T08:22:13;36.10;98.30
30206;DHT22;17010;51.306;3.150;2023-07-08T08:24:41;36.00;97.40
30206;DHT22;17010;51.306;3.150;2023-07-08T08:27:07;35.90;98.20
30206;DHT22;17010;51.306;3.150;2023-07-08T08:29:33;35.90;98.20
30206;DHT22;17010;51.306;3.150;2023-07-08T08:31:59;35.90;97.90
30206;DHT22;17010;51.306;3.150;2023-07-08T08:34:25;35.90;98.30
30206;DHT22;17010;51.306;3.150;2023-07-08T08:36:51;36.10;97.60
30206;DHT22;17010;51.306;3.150;2023-07-08T08:39:21;36.40;97.60
30206;DHT22;17010;51.306;3.150;2023-07-08T08:41:47;36.80;96.90
30206;DHT22;17010;51.306;3.150;2023-07-08T08:44:17;36.80;95.90
30206;DHT22;17010;51.306;3.150;2023-07-08T08:51:48;37.20;95.80
30206;DHT22;17010;51.306;3.150;2023-07-08T08:54:14;37.50;95.70
30206;DHT22;17010;51.306;3.150;2023-07-08T08:59:25;38.20;94.20
30206;DHT22;17010;51.306;3.150;2023-07-08T09:01:54;38.50;93.40
30206;DHT22;17010;51.306;3.150;2023-07-08T09:04:29;38.50;92.80
30206;DHT22;17010;51.306;3.150;2023-07-08T09:07:01;38.60;93.10
30206;DHT22;17010;51.306;3.150;2023-07-08T09:09:38;38.70;92.80
30206;DHT22;17010;51.306;3.150;2023-07-08T09:12:11;38.90;93.60
30206;DHT22;17010;51.306;3.150;2023-07-08T09:14:39;39.40;95.20
30206;DHT22;17010;51.306;3.150;2023-07-08T09:17:27;40.20;94.80
30206;DHT22;17010;51.306;3.150;2023-07-08T09:22:42;42.20;92.50
30206;DHT22;17010;51.306;3.150;2023-07-08T09:27:42;41.30;91.10
30206;DHT22;17010;51.306;3.150;2023-07-08T09:30:17;41.20;92.40
30206;DHT22;17010;51.306;3.150;2023-07-08T09:32:45;41.50;92.30
30206;DHT22;17010;51.306;3.150;2023-07-08T09:35:18;41.50;90.80
30206;DHT22;17010;51.306;3.150;2023-07-08T09:37:46;41.10;91.40
30206;DHT22;17010;51.306;3.150;2023-07-08T09:40:22;41.00;92.10
30206;DHT22;17010;51.306;3.150;2023-07-08T09:42:52;40.80;90.80
30206;DHT22;17010;51.306;3.150;2023-07-08T09:45:19;40.50;91.60
30206;DHT22;17010;51.306;3.150;2023-07-08T09:47:46;40.20;91.40
30206;DHT22;17010;51.306;3.150;2023-07-08T09:50:23;40.00;91.20
30206;DHT22;17010;51.306;3.150;2023-07-08T09:52:53;39.40;91.00
30206;DHT22;17010;51.306;3.150;2023-07-08T09:55:20;39.20;91.50
30206;DHT22;17010;51.306;3.150;2023-07-08T09:57:48;39.10;91.70
30206;DHT22;17010;51.306;3.150;2023-07-08T10:00:24;39.10;92.40
30206;DHT22;17010;51.306;3.150;2023-07-08T10:02:54;39.10;92.50
30206;DHT22;17010;51.306;3.150;2023-07-08T10:05:25;39.10;92.20
30206;DHT22;17010;51.306;3.150;2023-07-08T10:07:54;39.30;92.80
30206;DHT22;17010;51.306;3.150;2023-07-08T10:10:35;39.60;91.90
30206;DHT22;17010;51.306;3.150;2023-07-08T10:13:39;39.80;91.80
30206;DHT22;17010;51.306;3.150;2023-07-08T10:18:49;39.90;91.30
30206;DHT22;17010;51.306;3.150;2023-07-08T10:26:42;40.40;90.50
30206;DHT22;17010;51.306;3.150;2023-07-08T10:29:35;39.30;91.60
30206;DHT22;17010;51.306;3.150;2023-07-08T10:32:22;39.10;91.60
30206;DHT22;17010;51.306;3.150;2023-07-08T10:37:33;39.60;91.80
30206;DHT22;17010;51.306;3.150;2023-07-08T10:40:17;39.60;91.80
30206;DHT22;17010;51.306;3.150;2023-07-08T11:00:11;38.90;91.40
30206;DHT22;17010;51.306;3.150;2023-07-08T11:05:50;38.70;91.90
30206;DHT22;17010;51.306;3.150;2023-07-08T11:08:30;38.70;91.60
30206;DHT22;17010;51.306;3.150;2023-07-08T11:11:08;38.30;91.70
30206;DHT22;17010;51.306;3.150;2023-07-08T11:13:40;36.90;91.40
30206;DHT22;17010;51.306;3.150;2023-07-08T11:16:30;36.20;92.50
30206;DHT22;17010;51.306;3.150;2023-07-08T11:21:42;35.70;93.70
30206;DHT22;17010;51.306;3.150;2023-07-08T11:26:53;36.30;93.20
30206;DHT22;17010;51.306;3.150;2023-07-08T11:29:47;36.20;93.30
30206;DHT22;17010;51.306;3.150;2023-07-08T11:32:17;35.10;93.30
30206;DHT22;17010;51.306;3.150;2023-07-08T11:34:46;34.30;94.50
30206;DHT22;17010;51.306;3.150;2023-07-08T11:37:14;34.70;93.90
30206;DHT22;17010;51.306;3.150;2023-07-08T11:39:46;35.00;93.40
30206;DHT22;17010;51.306;3.150;2023-07-08T11:42:23;35.70;94.10
30206;DHT22;17010;51.306;3.150;2023-07-08T11:44:54;36.30;93.10
30206;DHT22;17010;51.306;3.150;2023-07-08T11:49:58;36.50;91.90
30206;DHT22;17010;51.306;3.150;2023-07-08T11:52:25;36.10;91.50
30206;DHT22;17010;51.306;3.150;2023-07-08T11:55:03;35.60;93.00
30206;DHT22;17010;51.306;3.150;2023-07-08T11:57:40;36.10;92.50
30206;DHT22;17010;51.306;3.150;2023-07-08T12:02:55;34.90;91.80
30206;DHT22;17010;51.306;3.150;2023-07-08T12:05:36;34.20;93.80
30206;DHT22;17010;51.306;3.150;2023-07-08T12:08:03;34.60;92.90
30206;DHT22;17010;51.306;3.150;2023-07-08T12:10:46;34.70;92.80
30206;DHT22;17010;51.306;3.150;2023-07-08T12:13:18;35.00;93.30
30206;DHT22;17010;51.306;3.150;2023-07-08T12:15:44;35.30;92.00
30206;DHT22;17010;51.306;3.150;2023-07-08T12:18:14;34.60;92.50
30206;DHT22;17010;51.306;3.150;2023-07-08T12:20:54;34.20;93.00
30206;DHT22;17010;51.306;3.150;2023-07-08T12:23:22;34.00;93.20
30206;DHT22;17010;51.306;3.150;2023-07-08T12:25:52;33.70;92.80
30206;DHT22;17010;51.306;3.150;2023-07-08T12:28:19;32.80;94.70
30206;DHT22;17010;51.306;3.150;2023-07-08T12:30:46;32.40;95.60
30206;DHT22;17010;51.306;3.150;2023-07-08T12:33:14;31.60;97.20
30206;DHT22;17010;51.306;3.150;2023-07-08T12:35:41;31.30;97.60
30206;DHT22;17010;51.306;3.150;2023-07-08T12:38:18;31.20;98.30
30206;DHT22;17010;51.306;3.150;2023-07-08T12:40:45;30.60;97.10
30206;DHT22;17010;51.306;3.150;2023-07-08T12:43:12;30.60;97.80
30206;DHT22;17010;51.306;3.150;2023-07-08T12:45:39;30.30;97.70
30206;DHT22;17010;51.306;3.150;2023-07-08T12:48:05;29.90;99.30
30206;DHT22;17010;51.306;3.150;2023-07-08T12:50:32;29.80;98.70
30206;DHT22;17010;51.306;3.150;2023-07-08T12:52:59;30.00;99.00
30206;DHT22;17010;51.306;3.150;2023-07-08T12:55:29;29.90;98.50
30206;DHT22;17010;51.306;3.150;2023-07-08T12:57:55;29.90;98.40
30206;DHT22;17010;51.306;3.150;2023-07-08T13:00:36;30.00;99.50
30206;DHT22;17010;51.306;3.150;2023-07-08T13:03:17;30.20;98.90
30206;DHT22;17010;51.306;3.150;2023-07-08T13:05:44;30.40;97.40
30206;DHT22;17010;51.306;3.150;2023-07-08T13:08:14;30.40;98.10
30206;DHT22;17010;51.306;3.150;2023-07-08T13:10:42;30.00;98.50
30206;DHT22;17010;51.306;3.150;2023-07-08T13:13:13;30.00;98.30
30206;DHT22;17010;51.306;3.150;2023-07-08T13:15:41;30.10;97.70
30206;DHT22;17010;51.306;3.150;2023-07-08T13:18:32;29.80;97.10
30206;DHT22;17010;51.306;3.150;2023-07-08T13:20:58;29.70;97.70
30206;DHT22;17010;51.306;3.150;2023-07-08T13:23:26;29.60;98.40
30206;DHT22;17010;51.306;3.150;2023-07-08T13:25:53;29.40;98.10
30206;DHT22;17010;51.306;3.150;2023-07-08T13:28:22;29.20;99.40
30206;DHT22;17010;51.306;3.150;2023-07-08T13:30:58;28.90;99.90
30206;DHT22;17010;51.306;3.150;2023-07-08T13:33:33;28.70;99.90
30206;DHT22;17010;51.306;3.150;2023-07-08T13:36:03;28.80;99.90
30206;DHT22;17010;51.306;3.150;2023-07-08T13:38:35;28.70;99.90
30206;DHT22;17010;51.306;3.150;2023-07-08T13:41:05;28.60;99.90
30206;DHT22;17010;51.306;3.150;2023-07-08T13:43:34;28.50;99.90
30206;DHT22;17010;51.306;3.150;2023-07-08T13:46:02;28.20;99.90
30206;DHT22;17010;51.306;3.150;2023-07-08T13:48:42;28.20;99.90
30206;DHT22;17010;51.306;3.150;2023-07-08T13:51:20;28.30;99.90
30206;DHT22;17010;51.306;3.150;2023-07-08T13:53:56;28.10;99.90
30206;DHT22;17010;51.306;3.150;2023-07-08T13:56:27;28.00;99.90
30206;DHT22;17010;51.306;3.150;2023-07-08T13:59:22;28.00;99.90
30206;DHT22;17010;51.306;3.150;2023-07-08T14:01:47;27.80;99.90
30206;DHT22;17010;51.306;3.150;2023-07-08T14:04:16;27.90;99.90
30206;DHT22;17010;51.306;3.150;2023-07-08T14:06:44;27.90;99.90
30206;DHT22;17010;51.306;3.150;2023-07-08T14:09:14;28.00;99.90
30206;DHT22;17010;51.306;3.150;2023-07-08T14:11:40;28.00;99.90
30206;DHT22;17010;51.306;3.150;2023-07-08T14:14:08;27.80;99.90
30206;DHT22;17010;51.306;3.150;2023-07-08T14:16:38;27.90;99.90
30206;DHT22;17010;51.306;3.150;2023-07-08T14:19:06;28.00;99.90
30206;DHT22;17010;51.306;3.150;2023-07-08T14:21:33;27.90;99.90
30206;DHT22;17010;51.306;3.150;2023-07-08T14:24:00;28.10;99.90
30206;DHT22;17010;51.306;3.150;2023-07-08T14:26:28;28.40;99.90
30206;DHT22;17010;51.306;3.150;2023-07-08T14:28:55;28.80;99.90
30206;DHT22;17010;51.306;3.150;2023-07-08T14:31:23;29.00;99.90
30206;DHT22;17010;51.306;3.150;2023-07-08T14:34:12;29.30;99.90
30206;DHT22;17010;51.306;3.150;2023-07-08T14:36:39;29.40;99.90
30206;DHT22;17010;51.306;3.150;2023-07-08T14:39:13;29.40;99.90
30206;DHT22;17010;51.306;3.150;2023-07-08T14:41:39;29.30;99.90
30206;DHT22;17010;51.306;3.150;2023-07-08T14:44:26;29.20;99.90
30206;DHT22;17010;51.306;3.150;2023-07-08T14:46:55;29.30;99.90
30206;DHT22;17010;51.306;3.150;2023-07-08T14:49:23;29.40;99.90
30206;DHT22;17010;51.306;3.150;2023-07-08T14:51:50;29.50;99.90
30206;DHT22;17010;51.306;3.150;2023-07-08T14:54:18;29.60;99.90
30206;DHT22;17010;51.306;3.150;2023-07-08T14:56:46;29.50;99.90
30206;DHT22;17010;51.306;3.150;2023-07-08T14:59:19;29.50;99.90
30206;DHT22;17010;51.306;3.150;2023-07-08T15:01:46;29.50;99.90
30206;DHT22;17010;51.306;3.150;2023-07-08T15:04:14;29.30;99.90
30206;DHT22;17010;51.306;3.150;2023-07-08T15:06:44;29.20;99.90
30206;DHT22;17010;51.306;3.150;2023-07-08T15:09:11;29.00;99.90
30206;DHT22;17010;51.306;3.150;2023-07-08T15:11:38;28.80;99.90
30206;DHT22;17010;51.306;3.150;2023-07-08T15:14:13;28.50;99.90
30206;DHT22;17010;51.306;3.150;2023-07-08T15:16:41;28.30;99.90
30206;DHT22;17010;51.306;3.150;2023-07-08T15:19:10;28.20;99.90
30206;DHT22;17010;51.306;3.150;2023-07-08T15:21:38;28.30;99.90
30206;DHT22;17010;51.306;3.150;2023-07-08T15:24:12;28.40;99.90
30206;DHT22;17010;51.306;3.150;2023-07-08T15:26:41;28.40;99.90
30206;DHT22;17010;51.306;3.150;2023-07-08T15:29:16;28.30;99.90
30206;DHT22;17010;51.306;3.150;2023-07-08T15:31:44;28.30;99.90
30206;DHT22;17010;51.306;3.150;2023-07-08T15:34:14;28.40;99.90
30206;DHT22;17010;51.306;3.150;2023-07-08T15:36:40;28.60;99.90
30206;DHT22;17010;51.306;3.150;2023-07-08T15:39:07;28.40;99.90
30206;DHT22;17010;51.306;3.150;2023-07-08T15:41:33;28.30;99.90
30206;DHT22;17010;51.306;3.150;2023-07-08T15:43:59;28.30;99.90
30206;DHT22;17010;51.306;3.150;2023-07-08T15:46:40;28.10;99.90
30206;DHT22;17010;51.306;3.150;2023-07-08T15:49:22;28.00;99.90
30206;DHT22;17010;51.306;3.150;2023-07-08T15:51:49;27.70;99.90
30206;DHT22;17010;51.306;3.150;2023-07-08T15:54:17;27.30;99.90
30206;DHT22;17010;51.306;3.150;2023-07-08T15:56:43;26.90;99.90
30206;DHT22;17010;51.306;3.150;2023-07-08T15:59:15;26.70;99.90
30206;DHT22;17010;51.306;3.150;2023-07-08T16:01:42;26.60;99.90
30206;DHT22;17010;51.306;3.150;2023-07-08T16:04:30;26.50;99.90
30206;DHT22;17010;51.306;3.150;2023-07-08T16:06:57;26.50;99.90
30206;DHT22;17010;51.306;3.150;2023-07-08T16:09:24;26.70;99.90
30206;DHT22;17010;51.306;3.150;2023-07-08T16:11:51;26.70;99.90
30206;DHT22;17010;51.306;3.150;2023-07-08T16:14:17;26.70;99.90
30206;DHT22;17010;51.306;3.150;2023-07-08T16:16:44;26.60;99.90
30206;DHT22;17010;51.306;3.150;2023-07-08T16:19:11;26.70;99.90
30206;DHT22;17010;51.306;3.150;2023-07-08T16:21:39;26.80;99.90
30206;DHT22;17010;51.306;3.150;2023-07-08T16:24:05;26.80;99.90
30206;DHT22;17010;51.306;3.150;2023-07-08T16:26:32;26.90;99.90
30206;DHT22;17010;51.306;3.150;2023-07-08T16:28:59;27.00;99.90
30206;DHT22;17010;51.306;3.150;2023-07-08T16:31:25;26.90;99.90
30206;DHT22;17010;51.306;3.150;2023-07-08T16:33:56;26.90;99.90
30206;DHT22;17010;51.306;3.150;2023-07-08T16:36:24;26.90;99.90
30206;DHT22;17010;51.306;3.150;2023-07-08T16:38:53;26.90;99.90
30206;DHT22;17010;51.306;3.150;2023-07-08T16:41:21;26.60;99.90
30206;DHT22;17010;51.306;3.150;2023-07-08T16:43:49;26.30;99.90